Nearby METAR Reports

 

LFSI - St. Dizier/Robin, France
Distance from station: SO 26km
Mise à jour: 28/01/2021 10:30
pluie légère, Mist, Thunderstorm
pluie légère, Mist, Thunderstorm
 Wind from OSO
Vent: OSO 28 km/h
Température: 11°C
Point de rosée: 10°C
Humidité: 94%
Baromètre: 1006 hPa
Résumé: pluie légère, Mist
Clouds: Thunderstorm
Visibility: 4 km
Cloud details: couvert 183 m
2021/01/28 09:30 LFSI 280930Z AUTO 24015KT 4200 -RA BR OVC006/// ///TCU 11/10 Q1006
LFSO - Nancy/Ochey (faf, France
Distance from station: ESE 62km
Mise à jour: 28/01/2021 10:30
pluie légère, Thunderstorm
pluie légère, Thunderstorm
 Wind from SO
Vent: SO 26 km/h
Température: 9°C
Wind Chill: 6°C
Point de rosée: 9°C
Humidité: 100%
Baromètre: 1005 hPa
Résumé: pluie légère
Clouds: Thunderstorm
Visibility: 8 km
Cloud details: couvert 274 m
2021/01/28 09:30 LFSO 280930Z AUTO 23014KT 8000 -RA OVC009/// ///CB 09/09 Q1005 TEMPO 2000 RA BECMG 26020G30KT BKN008
LFOK - Chalons/Vatry Fa, France
Distance from station: O 73km
Mise à jour: 28/01/2021 10:30
couvert
couvert
 Wind from OSO
Vent: OSO 39 km/h
Température: 11°C
Point de rosée: 11°C
Humidité: 100%
Baromètre: 1006 hPa
Clouds: couvert
Visibility: 10 km
Cloud details: nuageux 152 m
couvert 335 m
2021/01/28 09:30 LFOK 280930Z AUTO 25021KT 9999 BKN005 OVC011 11/11 Q1006 TEMPO 2000 RADZ BR OVC002 SCT020CB BECMG 24020G30KT
 
LFSN - Nancy/Essey, France
Distance from station: E 77km
Mise à jour: 28/01/2021 10:30
pluie légère, Thunderstorm
pluie légère, Thunderstorm
 Wind from SSO
Vent: SSO 11 km/h
Température: 8°C
Wind Chill: 6°C
Point de rosée: 8°C
Humidité: 100%
Baromètre: 1005 hPa
Résumé: pluie légère
Clouds: Thunderstorm
Visibility: 10 km
Cloud details: nuageux 305 m
couvert 457 m
2021/01/28 09:30 LFSN 280930Z AUTO 20006KT 9999 -RA BKN010/// OVC015/// ///CB 08/08 Q1005
LFSG - Epinal/Mirecourt, France
Distance from station: SE 81km
Mise à jour: 28/01/2021 10:30
pluie légère, Thunderstorm
pluie légère, Thunderstorm
 Wind from SSO
Vent: SSO 22 km/h
Température: 8°C
Wind Chill: 4°C
Point de rosée: 7°C
Humidité: 93%
Baromètre: 1006 hPa
Résumé: pluie légère
Clouds: Thunderstorm
Visibility: 7 km
Cloud details: nuageux 366 m
couvert 610 m
2021/01/28 09:30 LFSG 280930Z AUTO 20012KT 7000 -RA BKN012/// OVC020/// ///CB 08/07 Q1006
LFJL - Metz-Nancy-Lorra, France
Distance from station: ENE 82km
Mise à jour: 28/01/2021 10:30
Pluie, Mist, Thunderstorm
Pluie, Mist, Thunderstorm
 Wind from SO
Vent: SO 26 km/h
Température: 8°C
Wind Chill: 4°C
Point de rosée: 8°C
Humidité: 100%
Baromètre: 1004 hPa
Résumé: Pluie, Mist
Clouds: Thunderstorm
Visibility: 4 km
Cloud details: couvert 244 m
2021/01/28 09:30 LFJL 280930Z AUTO 22014KT 3700 RA BR OVC008/// ///CB 08/08 Q1004 TEMPO 26015G30KT OVC008
 
LFQA - Reims/Prunay, France
Distance from station: ONO 89km
Mise à jour: 28/01/2021 10:30
couvert
couvert
 Wind from O
Vent: O 28 km/h
Température: 12°C
Point de rosée: 10°C
Humidité: 88%
Baromètre: 1004 hPa
Clouds: couvert
Visibility: 10 km
Cloud details: couvert 427 m
2021/01/28 09:30 LFQA 280930Z AUTO 26015KT 9999 OVC014 12/10 Q1004
LFQB - Troyes/Barberey, France
Distance from station: OSO 99km
Mise à jour: 28/01/2021 10:30
couvert
couvert
 Wind from OSO
Vent: OSO 37 km/h
Température: 12°C
Point de rosée: 10°C
Humidité: 88%
Baromètre: 1007 hPa
Clouds: couvert
Visibility: 10 km
Cloud details: Few Clouds 274 m
nuageux 518 m
couvert 732 m
2021/01/28 09:30 LFQB 280930Z AUTO 25020KT 9999 FEW009 BKN017 OVC024 12/10 Q1007